sensor_id;sensor_type;location;lat;lon;timestamp;P1;durP1;ratioP1;P2;durP2;ratioP2
75739;SDS011;64357;51.344;6.550;2022-11-27T00:01:20;12.68;;;3.42;;
75739;SDS011;64357;51.344;6.550;2022-11-27T00:03:47;15.05;;;3.20;;
75739;SDS011;64357;51.344;6.550;2022-11-27T00:06:17;8.00;;;2.58;;
75739;SDS011;64357;51.344;6.550;2022-11-27T00:08:44;10.07;;;2.80;;
75739;SDS011;64357;51.344;6.550;2022-11-27T00:11:11;10.50;;;2.92;;
75739;SDS011;64357;51.344;6.550;2022-11-27T00:13:41;11.02;;;2.33;;
75739;SDS011;64357;51.344;6.550;2022-11-27T00:16:09;10.20;;;3.20;;
75739;SDS011;64357;51.344;6.550;2022-11-27T00:18:35;11.45;;;2.97;;
75739;SDS011;64357;51.344;6.550;2022-11-27T00:21:01;10.88;;;2.80;;
75739;SDS011;64357;51.344;6.550;2022-11-27T00:23:31;10.20;;;2.90;;
75739;SDS011;64357;51.344;6.550;2022-11-27T00:25:58;12.20;;;3.60;;
75739;SDS011;64357;51.344;6.550;2022-11-27T00:28:23;11.10;;;3.35;;
75739;SDS011;64357;51.344;6.550;2022-11-27T00:31:00;10.75;;;3.30;;
75739;SDS011;64357;51.344;6.550;2022-11-27T00:33:28;12.23;;;3.00;;
75739;SDS011;64357;51.344;6.550;2022-11-27T00:35:54;9.00;;;2.63;;
75739;SDS011;64357;51.344;6.550;2022-11-27T00:38:21;11.50;;;3.40;;
75739;SDS011;64357;51.344;6.550;2022-11-27T00:40:49;8.52;;;2.85;;
75739;SDS011;64357;51.344;6.550;2022-11-27T00:43:15;10.15;;;2.70;;
75739;SDS011;64357;51.344;6.550;2022-11-27T00:45:40;9.83;;;2.23;;
75739;SDS011;64357;51.344;6.550;2022-11-27T00:48:08;10.00;;;2.73;;
75739;SDS011;64357;51.344;6.550;2022-11-27T00:50:33;13.35;;;3.17;;
75739;SDS011;64357;51.344;6.550;2022-11-27T00:52:58;10.90;;;2.67;;
75739;SDS011;64357;51.344;6.550;2022-11-27T00:55:24;8.60;;;2.23;;
75739;SDS011;64357;51.344;6.550;2022-11-27T00:57:49;8.52;;;2.70;;
75739;SDS011;64357;51.344;6.550;2022-11-27T01:00:17;9.13;;;2.65;;
75739;SDS011;64357;51.344;6.550;2022-11-27T01:02:43;9.30;;;1.90;;
75739;SDS011;64357;51.344;6.550;2022-11-27T01:05:11;10.25;;;2.45;;
75739;SDS011;64357;51.344;6.550;2022-11-27T01:07:36;9.10;;;2.17;;
75739;SDS011;64357;51.344;6.550;2022-11-27T01:10:02;12.33;;;2.40;;
75739;SDS011;64357;51.344;6.550;2022-11-27T01:12:27;11.77;;;2.67;;
75739;SDS011;64357;51.344;6.550;2022-11-27T01:14:55;9.02;;;2.28;;
75739;SDS011;64357;51.344;6.550;2022-11-27T01:17:20;8.10;;;2.88;;
75739;SDS011;64357;51.344;6.550;2022-11-27T01:19:46;9.23;;;2.13;;
75739;SDS011;64357;51.344;6.550;2022-11-27T01:22:11;9.73;;;1.90;;
75739;SDS011;64357;51.344;6.550;2022-11-27T01:24:36;6.70;;;1.73;;
75739;SDS011;64357;51.344;6.550;2022-11-27T01:27:05;10.45;;;2.67;;
75739;SDS011;64357;51.344;6.550;2022-11-27T01:29:30;9.50;;;1.90;;
75739;SDS011;64357;51.344;6.550;2022-11-27T01:31:55;6.17;;;1.70;;
75739;SDS011;64357;51.344;6.550;2022-11-27T01:34:21;11.30;;;3.23;;
75739;SDS011;64357;51.344;6.550;2022-11-27T01:36:46;7.20;;;2.10;;
75739;SDS011;64357;51.344;6.550;2022-11-27T01:39:18;16.60;;;2.50;;
75739;SDS011;64357;51.344;6.550;2022-11-27T01:41:45;8.07;;;2.13;;
75739;SDS011;64357;51.344;6.550;2022-11-27T01:46:52;9.93;;;2.03;;
75739;SDS011;64357;51.344;6.550;2022-11-27T01:54:51;7.50;;;2.33;;
75739;SDS011;64357;51.344;6.550;2022-11-27T01:57:27;6.28;;;2.40;;
75739;SDS011;64357;51.344;6.550;2022-11-27T01:59:57;5.82;;;1.63;;
75739;SDS011;64357;51.344;6.550;2022-11-27T02:02:28;8.43;;;2.50;;
75739;SDS011;64357;51.344;6.550;2022-11-27T02:04:53;6.70;;;1.90;;
75739;SDS011;64357;51.344;6.550;2022-11-27T02:07:19;9.50;;;1.95;;
75739;SDS011;64357;51.344;6.550;2022-11-27T02:09:45;6.43;;;2.15;;
75739;SDS011;64357;51.344;6.550;2022-11-27T02:12:36;8.18;;;2.10;;
75739;SDS011;64357;51.344;6.550;2022-11-27T02:17:48;6.57;;;1.55;;
75739;SDS011;64357;51.344;6.550;2022-11-27T02:23:24;10.00;;;2.33;;
75739;SDS011;64357;51.344;6.550;2022-11-27T02:29:10;7.88;;;2.38;;
75739;SDS011;64357;51.344;6.550;2022-11-27T02:31:39;11.40;;;2.17;;
75739;SDS011;64357;51.344;6.550;2022-11-27T02:37:20;5.90;;;1.52;;
75739;SDS011;64357;51.344;6.550;2022-11-27T02:40:09;10.38;;;2.30;;
75739;SDS011;64357;51.344;6.550;2022-11-27T02:45:15;6.78;;;1.65;;
75739;SDS011;64357;51.344;6.550;2022-11-27T02:47:44;10.30;;;2.42;;
75739;SDS011;64357;51.344;6.550;2022-11-27T02:50:15;8.65;;;2.13;;
75739;SDS011;64357;51.344;6.550;2022-11-27T02:52:44;6.68;;;1.48;;
75739;SDS011;64357;51.344;6.550;2022-11-27T02:55:15;11.32;;;2.33;;
75739;SDS011;64357;51.344;6.550;2022-11-27T02:57:46;6.70;;;1.95;;
75739;SDS011;64357;51.344;6.550;2022-11-27T03:00:15;9.90;;;2.67;;
75739;SDS011;64357;51.344;6.550;2022-11-27T03:02:44;11.35;;;2.33;;
75739;SDS011;64357;51.344;6.550;2022-11-27T03:05:17;6.13;;;1.98;;
75739;SDS011;64357;51.344;6.550;2022-11-27T03:08:00;6.70;;;1.90;;
75739;SDS011;64357;51.344;6.550;2022-11-27T03:10:30;4.60;;;1.60;;
75739;SDS011;64357;51.344;6.550;2022-11-27T03:13:01;8.73;;;1.77;;
75739;SDS011;64357;51.344;6.550;2022-11-27T03:15:28;10.77;;;2.70;;
75739;SDS011;64357;51.344;6.550;2022-11-27T03:18:28;8.38;;;1.83;;
75739;SDS011;64357;51.344;6.550;2022-11-27T03:21:03;9.68;;;2.47;;
75739;SDS011;64357;51.344;6.550;2022-11-27T03:23:35;5.22;;;1.75;;
75739;SDS011;64357;51.344;6.550;2022-11-27T03:26:00;10.97;;;2.40;;
75739;SDS011;64357;51.344;6.550;2022-11-27T03:28:26;14.17;;;2.53;;
75739;SDS011;64357;51.344;6.550;2022-11-27T03:30:53;8.18;;;2.30;;
75739;SDS011;64357;51.344;6.550;2022-11-27T03:33:18;8.10;;;2.30;;
75739;SDS011;64357;51.344;6.550;2022-11-27T03:35:44;9.75;;;2.42;;
75739;SDS011;64357;51.344;6.550;2022-11-27T03:38:09;8.60;;;2.83;;
75739;SDS011;64357;51.344;6.550;2022-11-27T03:40:43;8.93;;;2.00;;
75739;SDS011;64357;51.344;6.550;2022-11-27T03:43:20;11.02;;;3.15;;
75739;SDS011;64357;51.344;6.550;2022-11-27T03:45:51;9.90;;;2.65;;
75739;SDS011;64357;51.344;6.550;2022-11-27T03:51:10;11.63;;;3.00;;
75739;SDS011;64357;51.344;6.550;2022-11-27T03:53:58;10.73;;;3.05;;
75739;SDS011;64357;51.344;6.550;2022-11-27T03:56:33;13.98;;;2.95;;
75739;SDS011;64357;51.344;6.550;2022-11-27T03:59:14;14.27;;;4.07;;
75739;SDS011;64357;51.344;6.550;2022-11-27T04:01:47;14.38;;;3.22;;
75739;SDS011;64357;51.344;6.550;2022-11-27T04:04:13;15.55;;;3.03;;
75739;SDS011;64357;51.344;6.550;2022-11-27T04:06:41;15.55;;;3.33;;
75739;SDS011;64357;51.344;6.550;2022-11-27T04:09:06;12.48;;;3.70;;
75739;SDS011;64357;51.344;6.550;2022-11-27T04:11:32;10.43;;;3.40;;
75739;SDS011;64357;51.344;6.550;2022-11-27T04:13:57;13.00;;;3.47;;
75739;SDS011;64357;51.344;6.550;2022-11-27T04:16:23;12.80;;;3.58;;
75739;SDS011;64357;51.344;6.550;2022-11-27T04:18:48;13.93;;;4.03;;
75739;SDS011;64357;51.344;6.550;2022-11-27T04:21:13;11.87;;;3.80;;
75739;SDS011;64357;51.344;6.550;2022-11-27T04:23:40;12.15;;;3.50;;
75739;SDS011;64357;51.344;6.550;2022-11-27T04:26:06;14.50;;;3.85;;
75739;SDS011;64357;51.344;6.550;2022-11-27T04:28:34;11.93;;;4.10;;
75739;SDS011;64357;51.344;6.550;2022-11-27T04:30:59;17.00;;;4.80;;
75739;SDS011;64357;51.344;6.550;2022-11-27T04:33:27;12.18;;;3.85;;
75739;SDS011;64357;51.344;6.550;2022-11-27T04:35:52;14.55;;;4.68;;
75739;SDS011;64357;51.344;6.550;2022-11-27T04:38:18;12.82;;;4.00;;
75739;SDS011;64357;51.344;6.550;2022-11-27T04:40:50;13.75;;;4.15;;
75739;SDS011;64357;51.344;6.550;2022-11-27T04:43:17;10.65;;;4.38;;
75739;SDS011;64357;51.344;6.550;2022-11-27T04:45:43;15.52;;;4.85;;
75739;SDS011;64357;51.344;6.550;2022-11-27T04:48:08;15.50;;;4.27;;
75739;SDS011;64357;51.344;6.550;2022-11-27T04:50:34;13.80;;;4.75;;
75739;SDS011;64357;51.344;6.550;2022-11-27T04:52:59;13.80;;;4.20;;
75739;SDS011;64357;51.344;6.550;2022-11-27T04:55:25;16.03;;;4.80;;
75739;SDS011;64357;51.344;6.550;2022-11-27T04:57:50;13.43;;;4.22;;
75739;SDS011;64357;51.344;6.550;2022-11-27T05:00:16;14.00;;;4.45;;
75739;SDS011;64357;51.344;6.550;2022-11-27T05:02:42;16.58;;;4.20;;
75739;SDS011;64357;51.344;6.550;2022-11-27T05:05:07;16.07;;;4.50;;
75739;SDS011;64357;51.344;6.550;2022-11-27T05:07:33;13.18;;;4.32;;
75739;SDS011;64357;51.344;6.550;2022-11-27T05:09:58;11.88;;;3.65;;
75739;SDS011;64357;51.344;6.550;2022-11-27T05:12:26;12.45;;;4.10;;
75739;SDS011;64357;51.344;6.550;2022-11-27T05:14:51;13.35;;;4.22;;
75739;SDS011;64357;51.344;6.550;2022-11-27T05:17:19;12.05;;;4.18;;
75739;SDS011;64357;51.344;6.550;2022-11-27T05:19:44;14.45;;;4.57;;
75739;SDS011;64357;51.344;6.550;2022-11-27T05:22:10;19.40;;;5.23;;
75739;SDS011;64357;51.344;6.550;2022-11-27T05:24:35;15.23;;;4.67;;
75739;SDS011;64357;51.344;6.550;2022-11-27T05:27:03;13.95;;;5.03;;
75739;SDS011;64357;51.344;6.550;2022-11-27T05:29:30;12.20;;;4.07;;
75739;SDS011;64357;51.344;6.550;2022-11-27T05:31:55;13.57;;;4.87;;
75739;SDS011;64357;51.344;6.550;2022-11-27T05:34:21;13.35;;;4.53;;
75739;SDS011;64357;51.344;6.550;2022-11-27T05:36:46;15.35;;;4.50;;
75739;SDS011;64357;51.344;6.550;2022-11-27T05:39:12;17.15;;;4.68;;
75739;SDS011;64357;51.344;6.550;2022-11-27T05:41:39;10.50;;;3.92;;
75739;SDS011;64357;51.344;6.550;2022-11-27T05:44:05;14.07;;;4.07;;
75739;SDS011;64357;51.344;6.550;2022-11-27T05:46:30;16.23;;;5.38;;
75739;SDS011;64357;51.344;6.550;2022-11-27T05:48:56;13.43;;;4.25;;
75739;SDS011;64357;51.344;6.550;2022-11-27T05:51:22;10.00;;;4.10;;
75739;SDS011;64357;51.344;6.550;2022-11-27T05:53:50;14.35;;;4.38;;
75739;SDS011;64357;51.344;6.550;2022-11-27T05:56:16;12.23;;;3.78;;
75739;SDS011;64357;51.344;6.550;2022-11-27T05:58:43;8.00;;;2.72;;
75739;SDS011;64357;51.344;6.550;2022-11-27T06:01:12;11.80;;;4.53;;
75739;SDS011;64357;51.344;6.550;2022-11-27T06:03:39;11.98;;;4.05;;
75739;SDS011;64357;51.344;6.550;2022-11-27T06:06:10;15.93;;;5.13;;
75739;SDS011;64357;51.344;6.550;2022-11-27T06:08:38;11.35;;;3.67;;
75739;SDS011;64357;51.344;6.550;2022-11-27T06:11:16;12.88;;;3.92;;
75739;SDS011;64357;51.344;6.550;2022-11-27T06:13:43;13.75;;;3.83;;
75739;SDS011;64357;51.344;6.550;2022-11-27T06:16:12;13.38;;;4.30;;
75739;SDS011;64357;51.344;6.550;2022-11-27T06:18:42;12.77;;;4.25;;
75739;SDS011;64357;51.344;6.550;2022-11-27T06:21:08;11.93;;;3.80;;
75739;SDS011;64357;51.344;6.550;2022-11-27T06:23:35;12.98;;;4.72;;
75739;SDS011;64357;51.344;6.550;2022-11-27T06:26:11;10.43;;;3.25;;
75739;SDS011;64357;51.344;6.550;2022-11-27T06:31:08;10.90;;;3.90;;
75739;SDS011;64357;51.344;6.550;2022-11-27T06:33:35;10.93;;;3.53;;
75739;SDS011;64357;51.344;6.550;2022-11-27T06:36:03;10.55;;;3.50;;
75739;SDS011;64357;51.344;6.550;2022-11-27T06:38:30;12.00;;;3.53;;
75739;SDS011;64357;51.344;6.550;2022-11-27T06:41:01;10.40;;;3.28;;
75739;SDS011;64357;51.344;6.550;2022-11-27T06:43:31;11.00;;;3.22;;
75739;SDS011;64357;51.344;6.550;2022-11-27T06:45:58;10.50;;;4.30;;
75739;SDS011;64357;51.344;6.550;2022-11-27T06:48:24;9.93;;;3.47;;
75739;SDS011;64357;51.344;6.550;2022-11-27T06:50:50;10.20;;;3.33;;
75739;SDS011;64357;51.344;6.550;2022-11-27T06:53:16;11.30;;;3.45;;
75739;SDS011;64357;51.344;6.550;2022-11-27T06:55:42;11.40;;;3.70;;
75739;SDS011;64357;51.344;6.550;2022-11-27T06:58:08;9.75;;;3.30;;
75739;SDS011;64357;51.344;6.550;2022-11-27T07:00:33;12.13;;;3.50;;
75739;SDS011;64357;51.344;6.550;2022-11-27T07:02:58;13.00;;;3.20;;
75739;SDS011;64357;51.344;6.550;2022-11-27T07:05:24;9.97;;;3.10;;
75739;SDS011;64357;51.344;6.550;2022-11-27T07:07:53;12.50;;;3.78;;
75739;SDS011;64357;51.344;6.550;2022-11-27T07:10:22;14.95;;;3.67;;
75739;SDS011;64357;51.344;6.550;2022-11-27T07:12:47;15.23;;;3.83;;
75739;SDS011;64357;51.344;6.550;2022-11-27T07:15:14;14.60;;;3.80;;
75739;SDS011;64357;51.344;6.550;2022-11-27T07:17:40;9.00;;;3.00;;
75739;SDS011;64357;51.344;6.550;2022-11-27T07:20:06;8.35;;;2.50;;
75739;SDS011;64357;51.344;6.550;2022-11-27T07:22:32;8.38;;;2.70;;
75739;SDS011;64357;51.344;6.550;2022-11-27T07:24:57;10.23;;;2.90;;
75739;SDS011;64357;51.344;6.550;2022-11-27T07:27:24;10.27;;;3.60;;
75739;SDS011;64357;51.344;6.550;2022-11-27T07:29:50;11.63;;;3.15;;
75739;SDS011;64357;51.344;6.550;2022-11-27T07:32:16;8.48;;;2.60;;
75739;SDS011;64357;51.344;6.550;2022-11-27T07:34:41;12.27;;;3.40;;
75739;SDS011;64357;51.344;6.550;2022-11-27T07:37:09;9.63;;;3.05;;
75739;SDS011;64357;51.344;6.550;2022-11-27T07:39:36;10.87;;;2.77;;
75739;SDS011;64357;51.344;6.550;2022-11-27T07:42:02;10.73;;;3.60;;
75739;SDS011;64357;51.344;6.550;2022-11-27T07:44:27;10.00;;;3.15;;
75739;SDS011;64357;51.344;6.550;2022-11-27T07:46:52;11.50;;;3.80;;
75739;SDS011;64357;51.344;6.550;2022-11-27T07:49:18;9.23;;;2.97;;
75739;SDS011;64357;51.344;6.550;2022-11-27T07:51:43;12.05;;;3.10;;
75739;SDS011;64357;51.344;6.550;2022-11-27T07:54:08;9.07;;;2.90;;
75739;SDS011;64357;51.344;6.550;2022-11-27T07:56:34;10.23;;;2.72;;
75739;SDS011;64357;51.344;6.550;2022-11-27T07:58:59;9.63;;;2.87;;
75739;SDS011;64357;51.344;6.550;2022-11-27T08:01:25;9.20;;;2.47;;
75739;SDS011;64357;51.344;6.550;2022-11-27T08:03:50;10.73;;;3.00;;
75739;SDS011;64357;51.344;6.550;2022-11-27T08:06:19;11.43;;;3.40;;
75739;SDS011;64357;51.344;6.550;2022-11-27T08:08:46;9.32;;;2.92;;
75739;SDS011;64357;51.344;6.550;2022-11-27T08:13:54;10.00;;;3.20;;
75739;SDS011;64357;51.344;6.550;2022-11-27T08:16:21;9.13;;;2.50;;
75739;SDS011;64357;51.344;6.550;2022-11-27T08:18:46;10.85;;;3.00;;
75739;SDS011;64357;51.344;6.550;2022-11-27T08:21:14;9.63;;;2.92;;
75739;SDS011;64357;51.344;6.550;2022-11-27T08:23:40;7.68;;;2.60;;
75739;SDS011;64357;51.344;6.550;2022-11-27T08:26:06;9.87;;;2.97;;
75739;SDS011;64357;51.344;6.550;2022-11-27T08:28:33;13.00;;;2.90;;
75739;SDS011;64357;51.344;6.550;2022-11-27T08:31:02;8.13;;;2.90;;
75739;SDS011;64357;51.344;6.550;2022-11-27T08:33:31;11.00;;;3.38;;
75739;SDS011;64357;51.344;6.550;2022-11-27T08:35:56;9.57;;;3.13;;
75739;SDS011;64357;51.344;6.550;2022-11-27T08:38:24;13.02;;;3.10;;
75739;SDS011;64357;51.344;6.550;2022-11-27T08:40:56;7.10;;;2.67;;
75739;SDS011;64357;51.344;6.550;2022-11-27T08:43:30;10.20;;;2.88;;
75739;SDS011;64357;51.344;6.550;2022-11-27T08:45:58;8.15;;;2.72;;
75739;SDS011;64357;51.344;6.550;2022-11-27T08:48:24;9.50;;;3.22;;
75739;SDS011;64357;51.344;6.550;2022-11-27T08:50:52;10.43;;;3.38;;
75739;SDS011;64357;51.344;6.550;2022-11-27T08:53:17;8.50;;;2.80;;
75739;SDS011;64357;51.344;6.550;2022-11-27T08:55:43;10.07;;;2.80;;
75739;SDS011;64357;51.344;6.550;2022-11-27T08:58:09;10.38;;;3.45;;
75739;SDS011;64357;51.344;6.550;2022-11-27T09:00:35;8.98;;;3.22;;
75739;SDS011;64357;51.344;6.550;2022-11-27T09:03:03;9.25;;;2.72;;
75739;SDS011;64357;51.344;6.550;2022-11-27T09:05:29;9.48;;;2.67;;
75739;SDS011;64357;51.344;6.550;2022-11-27T09:07:55;9.95;;;3.10;;
75739;SDS011;64357;51.344;6.550;2022-11-27T09:10:21;10.35;;;3.30;;
75739;SDS011;64357;51.344;6.550;2022-11-27T09:12:48;10.23;;;2.95;;
75739;SDS011;64357;51.344;6.550;2022-11-27T09:15:16;6.53;;;2.00;;
75739;SDS011;64357;51.344;6.550;2022-11-27T09:17:42;12.23;;;3.40;;
75739;SDS011;64357;51.344;6.550;2022-11-27T09:20:08;8.82;;;2.58;;
75739;SDS011;64357;51.344;6.550;2022-11-27T09:22:38;9.30;;;2.72;;
75739;SDS011;64357;51.344;6.550;2022-11-27T09:25:04;8.77;;;2.20;;
75739;SDS011;64357;51.344;6.550;2022-11-27T09:27:29;7.60;;;2.58;;
75739;SDS011;64357;51.344;6.550;2022-11-27T09:29:55;8.27;;;2.70;;
75739;SDS011;64357;51.344;6.550;2022-11-27T09:32:22;8.57;;;2.88;;
75739;SDS011;64357;51.344;6.550;2022-11-27T09:34:50;5.97;;;2.47;;
75739;SDS011;64357;51.344;6.550;2022-11-27T09:37:18;6.57;;;2.38;;
75739;SDS011;64357;51.344;6.550;2022-11-27T09:39:44;5.77;;;2.20;;
75739;SDS011;64357;51.344;6.550;2022-11-27T09:42:11;7.83;;;2.27;;
75739;SDS011;64357;51.344;6.550;2022-11-27T09:44:52;9.95;;;2.25;;
75739;SDS011;64357;51.344;6.550;2022-11-27T09:47:35;9.77;;;2.95;;
75739;SDS011;64357;51.344;6.550;2022-11-27T09:57:49;7.13;;;2.28;;
75739;SDS011;64357;51.344;6.550;2022-11-27T10:00:27;7.35;;;2.30;;
75739;SDS011;64357;51.344;6.550;2022-11-27T10:02:53;7.03;;;2.47;;
75739;SDS011;64357;51.344;6.550;2022-11-27T10:05:20;7.90;;;2.20;;
75739;SDS011;64357;51.344;6.550;2022-11-27T10:16:16;8.32;;;2.90;;
75739;SDS011;64357;51.344;6.550;2022-11-27T10:26:39;11.18;;;3.10;;
75739;SDS011;64357;51.344;6.550;2022-11-27T10:29:23;8.05;;;2.63;;
75739;SDS011;64357;51.344;6.550;2022-11-27T10:31:50;8.77;;;3.30;;
75739;SDS011;64357;51.344;6.550;2022-11-27T10:36:54;9.63;;;2.95;;
75739;SDS011;64357;51.344;6.550;2022-11-27T10:42:06;8.52;;;2.85;;
75739;SDS011;64357;51.344;6.550;2022-11-27T10:44:38;8.57;;;2.47;;
75739;SDS011;64357;51.344;6.550;2022-11-27T10:47:10;7.07;;;2.45;;
75739;SDS011;64357;51.344;6.550;2022-11-27T10:49:41;7.85;;;3.03;;
75739;SDS011;64357;51.344;6.550;2022-11-27T10:52:11;8.23;;;2.78;;
75739;SDS011;64357;51.344;6.550;2022-11-27T10:54:38;7.82;;;2.30;;
75739;SDS011;64357;51.344;6.550;2022-11-27T11:00:21;13.25;;;3.22;;
75739;SDS011;64357;51.344;6.550;2022-11-27T11:02:48;8.93;;;2.95;;
75739;SDS011;64357;51.344;6.550;2022-11-27T11:05:23;7.70;;;2.38;;
75739;SDS011;64357;51.344;6.550;2022-11-27T11:07:56;13.30;;;4.03;;
75739;SDS011;64357;51.344;6.550;2022-11-27T11:10:35;10.45;;;3.25;;
75739;SDS011;64357;51.344;6.550;2022-11-27T11:15:42;8.48;;;2.92;;
75739;SDS011;64357;51.344;6.550;2022-11-27T11:18:17;8.23;;;3.05;;
75739;SDS011;64357;51.344;6.550;2022-11-27T11:21:04;8.60;;;3.00;;
75739;SDS011;64357;51.344;6.550;2022-11-27T11:26:06;10.27;;;2.90;;
75739;SDS011;64357;51.344;6.550;2022-11-27T11:28:58;13.68;;;3.22;;
75739;SDS011;64357;51.344;6.550;2022-11-27T11:31:30;8.02;;;2.60;;
75739;SDS011;64357;51.344;6.550;2022-11-27T11:33:59;8.25;;;2.80;;
75739;SDS011;64357;51.344;6.550;2022-11-27T11:36:28;11.55;;;3.40;;
75739;SDS011;64357;51.344;6.550;2022-11-27T11:38:56;9.32;;;2.70;;
75739;SDS011;64357;51.344;6.550;2022-11-27T11:41:21;8.90;;;2.95;;
75739;SDS011;64357;51.344;6.550;2022-11-27T11:43:52;8.23;;;2.97;;
75739;SDS011;64357;51.344;6.550;2022-11-27T11:46:23;8.30;;;2.80;;
75739;SDS011;64357;51.344;6.550;2022-11-27T11:51:42;9.85;;;3.15;;
75739;SDS011;64357;51.344;6.550;2022-11-27T11:54:37;7.55;;;2.67;;
75739;SDS011;64357;51.344;6.550;2022-11-27T12:05:26;9.60;;;3.05;;
75739;SDS011;64357;51.344;6.550;2022-11-27T12:13:21;9.52;;;3.00;;
75739;SDS011;64357;51.344;6.550;2022-11-27T12:18:45;8.95;;;3.13;;
75739;SDS011;64357;51.344;6.550;2022-11-27T12:27:26;11.02;;;2.92;;
75739;SDS011;64357;51.344;6.550;2022-11-27T12:32:11;8.15;;;2.63;;
75739;SDS011;64357;51.344;6.550;2022-11-27T12:45:28;9.35;;;2.42;;
75739;SDS011;64357;51.344;6.550;2022-11-27T12:48:01;9.35;;;3.50;;
75739;SDS011;64357;51.344;6.550;2022-11-27T12:50:40;17.90;;;2.65;;
75739;SDS011;64357;51.344;6.550;2022-11-27T12:56:14;8.43;;;3.05;;
75739;SDS011;64357;51.344;6.550;2022-11-27T12:58:52;7.18;;;2.42;;
75739;SDS011;64357;51.344;6.550;2022-11-27T13:01:34;8.48;;;3.05;;
75739;SDS011;64357;51.344;6.550;2022-11-27T13:04:25;5.78;;;2.15;;
75739;SDS011;64357;51.344;6.550;2022-11-27T13:12:25;6.95;;;2.33;;
75739;SDS011;64357;51.344;6.550;2022-11-27T13:14:59;8.93;;;3.35;;
75739;SDS011;64357;51.344;6.550;2022-11-27T13:17:38;6.85;;;2.65;;
75739;SDS011;64357;51.344;6.550;2022-11-27T13:20:17;10.32;;;2.70;;
75739;SDS011;64357;51.344;6.550;2022-11-27T13:22:46;6.22;;;2.08;;
75739;SDS011;64357;51.344;6.550;2022-11-27T13:25:17;7.18;;;2.50;;
75739;SDS011;64357;51.344;6.550;2022-11-27T13:27:46;10.77;;;2.50;;
75739;SDS011;64357;51.344;6.550;2022-11-27T13:30:22;10.65;;;2.78;;
75739;SDS011;64357;51.344;6.550;2022-11-27T13:32:55;8.20;;;2.22;;
75739;SDS011;64357;51.344;6.550;2022-11-27T13:37:58;9.35;;;2.47;;
75739;SDS011;64357;51.344;6.550;2022-11-27T13:40:40;8.75;;;2.13;;
75739;SDS011;64357;51.344;6.550;2022-11-27T13:46:05;8.30;;;2.30;;
75739;SDS011;64357;51.344;6.550;2022-11-27T13:51:20;8.50;;;2.28;;
75739;SDS011;64357;51.344;6.550;2022-11-27T13:56:42;6.80;;;2.20;;
75739;SDS011;64357;51.344;6.550;2022-11-27T13:59:15;7.90;;;2.70;;
75739;SDS011;64357;51.344;6.550;2022-11-27T14:04:19;7.78;;;2.33;;
75739;SDS011;64357;51.344;6.550;2022-11-27T14:06:50;10.40;;;2.42;;
75739;SDS011;64357;51.344;6.550;2022-11-27T14:09:18;5.82;;;1.83;;
75739;SDS011;64357;51.344;6.550;2022-11-27T14:11:44;6.85;;;2.08;;
75739;SDS011;64357;51.344;6.550;2022-11-27T14:14:13;6.35;;;1.88;;
75739;SDS011;64357;51.344;6.550;2022-11-27T14:16:51;7.25;;;2.17;;
75739;SDS011;64357;51.344;6.550;2022-11-27T14:20:19;6.10;;;2.10;;
75739;SDS011;64357;51.344;6.550;2022-11-27T14:22:33;9.27;;;2.63;;
75739;SDS011;64357;51.344;6.550;2022-11-27T14:25:15;8.82;;;2.42;;
75739;SDS011;64357;51.344;6.550;2022-11-27T14:27:41;8.13;;;2.08;;
75739;SDS011;64357;51.344;6.550;2022-11-27T14:30:30;6.93;;;2.83;;
75739;SDS011;64357;51.344;6.550;2022-11-27T14:32:58;8.02;;;2.10;;
75739;SDS011;64357;51.344;6.550;2022-11-27T14:35:26;7.88;;;2.20;;
75739;SDS011;64357;51.344;6.550;2022-11-27T14:37:52;5.57;;;2.35;;
75739;SDS011;64357;51.344;6.550;2022-11-27T14:40:25;6.85;;;2.40;;
75739;SDS011;64357;51.344;6.550;2022-11-27T14:42:51;6.65;;;2.67;;
75739;SDS011;64357;51.344;6.550;2022-11-27T14:45:18;7.85;;;2.25;;
75739;SDS011;64357;51.344;6.550;2022-11-27T14:47:46;8.18;;;2.28;;
75739;SDS011;64357;51.344;6.550;2022-11-27T14:50:14;8.02;;;2.65;;
75739;SDS011;64357;51.344;6.550;2022-11-27T14:52:44;7.68;;;2.53;;
75739;SDS011;64357;51.344;6.550;2022-11-27T14:55:14;8.88;;;3.60;;
75739;SDS011;64357;51.344;6.550;2022-11-27T14:57:41;5.97;;;2.30;;
75739;SDS011;64357;51.344;6.550;2022-11-27T15:02:47;10.85;;;3.05;;
75739;SDS011;64357;51.344;6.550;2022-11-27T15:05:17;5.85;;;2.25;;
75739;SDS011;64357;51.344;6.550;2022-11-27T15:07:43;7.47;;;2.30;;
75739;SDS011;64357;51.344;6.550;2022-11-27T15:10:42;8.73;;;2.45;;
75739;SDS011;64357;51.344;6.550;2022-11-27T15:13:02;5.70;;;2.17;;
75739;SDS011;64357;51.344;6.550;2022-11-27T15:15:37;6.32;;;2.40;;
75739;SDS011;64357;51.344;6.550;2022-11-27T15:18:13;6.43;;;2.15;;
75739;SDS011;64357;51.344;6.550;2022-11-27T15:20:46;8.40;;;2.60;;
75739;SDS011;64357;51.344;6.550;2022-11-27T15:23:22;6.53;;;2.42;;
75739;SDS011;64357;51.344;6.550;2022-11-27T15:30:53;5.30;;;2.10;;
75739;SDS011;64357;51.344;6.550;2022-11-27T15:33:23;5.43;;;1.83;;
75739;SDS011;64357;51.344;6.550;2022-11-27T15:35:50;5.88;;;1.88;;
75739;SDS011;64357;51.344;6.550;2022-11-27T15:38:15;8.47;;;2.50;;
75739;SDS011;64357;51.344;6.550;2022-11-27T15:40:42;5.57;;;2.10;;
75739;SDS011;64357;51.344;6.550;2022-11-27T15:43:13;7.78;;;2.53;;
75739;SDS011;64357;51.344;6.550;2022-11-27T15:45:40;8.15;;;2.50;;
75739;SDS011;64357;51.344;6.550;2022-11-27T15:48:14;12.40;;;3.80;;
75739;SDS011;64357;51.344;6.550;2022-11-27T15:50:43;6.65;;;2.17;;
75739;SDS011;64357;51.344;6.550;2022-11-27T15:53:09;9.00;;;2.40;;
75739;SDS011;64357;51.344;6.550;2022-11-27T15:55:35;7.18;;;2.55;;
75739;SDS011;64357;51.344;6.550;2022-11-27T15:58:00;6.32;;;2.20;;
75739;SDS011;64357;51.344;6.550;2022-11-27T16:00:26;9.67;;;2.47;;
75739;SDS011;64357;51.344;6.550;2022-11-27T16:02:52;6.07;;;1.67;;
75739;SDS011;64357;51.344;6.550;2022-11-27T16:05:17;6.80;;;2.08;;
75739;SDS011;64357;51.344;6.550;2022-11-27T16:07:45;9.32;;;2.38;;
75739;SDS011;64357;51.344;6.550;2022-11-27T16:10:11;6.70;;;2.60;;
75739;SDS011;64357;51.344;6.550;2022-11-27T16:12:37;6.28;;;2.13;;
75739;SDS011;64357;51.344;6.550;2022-11-27T16:15:05;6.57;;;2.20;;
75739;SDS011;64357;51.344;6.550;2022-11-27T16:17:31;7.85;;;2.80;;
75739;SDS011;64357;51.344;6.550;2022-11-27T16:19:57;7.88;;;2.60;;
75739;SDS011;64357;51.344;6.550;2022-11-27T16:22:22;10.70;;;3.50;;
75739;SDS011;64357;51.344;6.550;2022-11-27T16:24:48;9.10;;;2.42;;
75739;SDS011;64357;51.344;6.550;2022-11-27T16:27:15;7.13;;;2.20;;
75739;SDS011;64357;51.344;6.550;2022-11-27T16:29:45;6.40;;;2.28;;
75739;SDS011;64357;51.344;6.550;2022-11-27T16:32:11;5.97;;;2.30;;
75739;SDS011;64357;51.344;6.550;2022-11-27T16:34:39;7.55;;;2.85;;
75739;SDS011;64357;51.344;6.550;2022-11-27T16:37:04;8.87;;;2.40;;
75739;SDS011;64357;51.344;6.550;2022-11-27T16:39:32;14.40;;;3.90;;
75739;SDS011;64357;51.344;6.550;2022-11-27T16:41:57;7.73;;;2.73;;
75739;SDS011;64357;51.344;6.550;2022-11-27T16:44:22;6.83;;;2.30;;
75739;SDS011;64357;51.344;6.550;2022-11-27T16:46:51;9.20;;;2.50;;
75739;SDS011;64357;51.344;6.550;2022-11-27T16:49:17;8.50;;;2.90;;
75739;SDS011;64357;51.344;6.550;2022-11-27T16:51:43;8.35;;;2.67;;
75739;SDS011;64357;51.344;6.550;2022-11-27T16:54:09;8.52;;;2.28;;
75739;SDS011;64357;51.344;6.550;2022-11-27T16:56:37;7.55;;;2.55;;
75739;SDS011;64357;51.344;6.550;2022-11-27T16:59:05;6.50;;;2.80;;
